sensor_id;sensor_type;location;lat;lon;timestamp;P1;durP1;ratioP1;P2;durP2;ratioP2
82922;SDS011;72787;51.272;6.040;2023-10-08T00:00:45;8.41;;;8.32;;
82922;SDS011;72787;51.272;6.040;2023-10-08T00:03:13;8.05;;;7.95;;
82922;SDS011;72787;51.272;6.040;2023-10-08T00:05:40;8.02;;;7.94;;
82922;SDS011;72787;51.272;6.040;2023-10-08T00:08:06;8.16;;;8.11;;
82922;SDS011;72787;51.272;6.040;2023-10-08T00:10:37;7.96;;;7.93;;
82922;SDS011;72787;51.272;6.040;2023-10-08T00:13:06;7.98;;;7.94;;
82922;SDS011;72787;51.272;6.040;2023-10-08T00:15:35;7.39;;;7.32;;
82922;SDS011;72787;51.272;6.040;2023-10-08T00:18:02;7.33;;;7.28;;
82922;SDS011;72787;51.272;6.040;2023-10-08T00:20:32;7.21;;;7.20;;
82922;SDS011;72787;51.272;6.040;2023-10-08T00:23:20;7.24;;;7.22;;
82922;SDS011;72787;51.272;6.040;2023-10-08T00:25:47;6.97;;;6.94;;
82922;SDS011;72787;51.272;6.040;2023-10-08T00:28:15;6.99;;;6.94;;
82922;SDS011;72787;51.272;6.040;2023-10-08T00:30:42;6.74;;;6.72;;
82922;SDS011;72787;51.272;6.040;2023-10-08T00:33:08;6.71;;;6.69;;
82922;SDS011;72787;51.272;6.040;2023-10-08T00:35:38;6.93;;;6.89;;
82922;SDS011;72787;51.272;6.040;2023-10-08T00:38:05;7.07;;;7.02;;
82922;SDS011;72787;51.272;6.040;2023-10-08T00:40:39;5.99;;;5.94;;
82922;SDS011;72787;51.272;6.040;2023-10-08T00:43:06;6.50;;;6.41;;
82922;SDS011;72787;51.272;6.040;2023-10-08T00:45:36;6.43;;;6.37;;
82922;SDS011;72787;51.272;6.040;2023-10-08T00:48:08;6.50;;;6.48;;
82922;SDS011;72787;51.272;6.040;2023-10-08T00:50:45;6.42;;;6.39;;
82922;SDS011;72787;51.272;6.040;2023-10-08T00:53:12;6.21;;;6.16;;
82922;SDS011;72787;51.272;6.040;2023-10-08T00:55:49;6.48;;;6.44;;
82922;SDS011;72787;51.272;6.040;2023-10-08T00:58:30;6.60;;;6.51;;
82922;SDS011;72787;51.272;6.040;2023-10-08T01:00:59;6.53;;;6.41;;
82922;SDS011;72787;51.272;6.040;2023-10-08T01:03:26;6.68;;;6.57;;
82922;SDS011;72787;51.272;6.040;2023-10-08T01:05:53;6.51;;;6.39;;
82922;SDS011;72787;51.272;6.040;2023-10-08T01:08:22;6.67;;;6.49;;
82922;SDS011;72787;51.272;6.040;2023-10-08T01:11:20;6.46;;;6.28;;
82922;SDS011;72787;51.272;6.040;2023-10-08T01:13:57;6.49;;;6.33;;
82922;SDS011;72787;51.272;6.040;2023-10-08T01:16:24;6.44;;;6.31;;
82922;SDS011;72787;51.272;6.040;2023-10-08T01:18:53;6.70;;;6.47;;
82922;SDS011;72787;51.272;6.040;2023-10-08T01:21:20;6.35;;;6.16;;
82922;SDS011;72787;51.272;6.040;2023-10-08T01:24:05;6.20;;;6.00;;
82922;SDS011;72787;51.272;6.040;2023-10-08T01:26:35;6.26;;;6.10;;
82922;SDS011;72787;51.272;6.040;2023-10-08T01:29:08;5.79;;;5.68;;
82922;SDS011;72787;51.272;6.040;2023-10-08T01:31:35;5.71;;;5.58;;
82922;SDS011;72787;51.272;6.040;2023-10-08T01:34:02;6.19;;;6.02;;
82922;SDS011;72787;51.272;6.040;2023-10-08T01:36:30;6.14;;;6.00;;
82922;SDS011;72787;51.272;6.040;2023-10-08T01:38:56;6.01;;;5.88;;
82922;SDS011;72787;51.272;6.040;2023-10-08T01:41:23;5.86;;;5.76;;
82922;SDS011;72787;51.272;6.040;2023-10-08T01:44:06;6.10;;;5.98;;
82922;SDS011;72787;51.272;6.040;2023-10-08T01:46:33;6.07;;;5.88;;
82922;SDS011;72787;51.272;6.040;2023-10-08T01:49:00;5.53;;;5.43;;
82922;SDS011;72787;51.272;6.040;2023-10-08T01:51:30;5.71;;;5.65;;
82922;SDS011;72787;51.272;6.040;2023-10-08T01:54:12;5.59;;;5.51;;
82922;SDS011;72787;51.272;6.040;2023-10-08T01:56:41;5.21;;;5.11;;
82922;SDS011;72787;51.272;6.040;2023-10-08T01:59:08;5.65;;;5.54;;
82922;SDS011;72787;51.272;6.040;2023-10-08T02:01:35;5.70;;;5.62;;
82922;SDS011;72787;51.272;6.040;2023-10-08T02:04:01;5.47;;;5.40;;
82922;SDS011;72787;51.272;6.040;2023-10-08T02:06:27;5.09;;;5.04;;
82922;SDS011;72787;51.272;6.040;2023-10-08T02:08:52;5.46;;;5.41;;
82922;SDS011;72787;51.272;6.040;2023-10-08T02:11:18;5.41;;;5.37;;
82922;SDS011;72787;51.272;6.040;2023-10-08T02:13:45;5.43;;;5.37;;
82922;SDS011;72787;51.272;6.040;2023-10-08T02:16:17;5.33;;;5.25;;
82922;SDS011;72787;51.272;6.040;2023-10-08T02:18:44;5.22;;;5.19;;
82922;SDS011;72787;51.272;6.040;2023-10-08T02:21:11;5.57;;;5.52;;
82922;SDS011;72787;51.272;6.040;2023-10-08T02:23:37;5.08;;;5.03;;
82922;SDS011;72787;51.272;6.040;2023-10-08T02:26:03;5.55;;;5.49;;
82922;SDS011;72787;51.272;6.040;2023-10-08T02:28:29;5.52;;;5.44;;
82922;SDS011;72787;51.272;6.040;2023-10-08T02:30:54;5.49;;;5.37;;
82922;SDS011;72787;51.272;6.040;2023-10-08T02:33:21;5.48;;;5.38;;
82922;SDS011;72787;51.272;6.040;2023-10-08T02:35:47;5.07;;;5.00;;
82922;SDS011;72787;51.272;6.040;2023-10-08T02:38:16;4.98;;;4.91;;
82922;SDS011;72787;51.272;6.040;2023-10-08T02:40:43;5.33;;;5.22;;
82922;SDS011;72787;51.272;6.040;2023-10-08T02:43:12;4.94;;;4.86;;
82922;SDS011;72787;51.272;6.040;2023-10-08T02:45:40;5.04;;;4.97;;
82922;SDS011;72787;51.272;6.040;2023-10-08T02:48:06;4.88;;;4.83;;
82922;SDS011;72787;51.272;6.040;2023-10-08T02:50:42;4.93;;;4.87;;
82922;SDS011;72787;51.272;6.040;2023-10-08T02:53:09;5.25;;;5.17;;
82922;SDS011;72787;51.272;6.040;2023-10-08T02:55:38;5.02;;;4.98;;
82922;SDS011;72787;51.272;6.040;2023-10-08T02:58:13;4.93;;;4.90;;
82922;SDS011;72787;51.272;6.040;2023-10-08T03:00:44;5.01;;;4.99;;
82922;SDS011;72787;51.272;6.040;2023-10-08T03:03:14;4.71;;;4.67;;
82922;SDS011;72787;51.272;6.040;2023-10-08T03:05:43;4.84;;;4.83;;
82922;SDS011;72787;51.272;6.040;2023-10-08T03:08:19;4.94;;;4.90;;
82922;SDS011;72787;51.272;6.040;2023-10-08T03:10:46;4.58;;;4.55;;
82922;SDS011;72787;51.272;6.040;2023-10-08T03:13:21;4.73;;;4.68;;
82922;SDS011;72787;51.272;6.040;2023-10-08T03:15:48;4.69;;;4.65;;
82922;SDS011;72787;51.272;6.040;2023-10-08T03:18:25;4.98;;;4.94;;
82922;SDS011;72787;51.272;6.040;2023-10-08T03:21:05;4.74;;;4.69;;
82922;SDS011;72787;51.272;6.040;2023-10-08T03:23:48;5.06;;;5.00;;
82922;SDS011;72787;51.272;6.040;2023-10-08T03:26:16;5.03;;;4.97;;
82922;SDS011;72787;51.272;6.040;2023-10-08T03:28:59;5.03;;;4.94;;
82922;SDS011;72787;51.272;6.040;2023-10-08T03:31:30;4.86;;;4.79;;
82922;SDS011;72787;51.272;6.040;2023-10-08T03:34:18;5.05;;;4.99;;
82922;SDS011;72787;51.272;6.040;2023-10-08T03:36:45;4.61;;;4.55;;
82922;SDS011;72787;51.272;6.040;2023-10-08T03:39:15;5.17;;;5.05;;
82922;SDS011;72787;51.272;6.040;2023-10-08T03:41:45;4.70;;;4.65;;
82922;SDS011;72787;51.272;6.040;2023-10-08T03:44:29;4.72;;;4.69;;
82922;SDS011;72787;51.272;6.040;2023-10-08T03:46:55;4.64;;;4.60;;
82922;SDS011;72787;51.272;6.040;2023-10-08T03:49:22;4.77;;;4.71;;
82922;SDS011;72787;51.272;6.040;2023-10-08T03:51:49;4.71;;;4.66;;
82922;SDS011;72787;51.272;6.040;2023-10-08T03:54:18;4.66;;;4.61;;
82922;SDS011;72787;51.272;6.040;2023-10-08T03:56:46;4.69;;;4.67;;
82922;SDS011;72787;51.272;6.040;2023-10-08T03:59:12;4.76;;;4.72;;
82922;SDS011;72787;51.272;6.040;2023-10-08T04:01:41;4.71;;;4.67;;
82922;SDS011;72787;51.272;6.040;2023-10-08T04:04:08;4.49;;;4.43;;
82922;SDS011;72787;51.272;6.040;2023-10-08T04:06:40;4.52;;;4.43;;
82922;SDS011;72787;51.272;6.040;2023-10-08T04:09:15;4.65;;;4.54;;
82922;SDS011;72787;51.272;6.040;2023-10-08T04:11:51;4.68;;;4.62;;
82922;SDS011;72787;51.272;6.040;2023-10-08T04:14:19;4.36;;;4.33;;
82922;SDS011;72787;51.272;6.040;2023-10-08T04:16:50;4.59;;;4.56;;
82922;SDS011;72787;51.272;6.040;2023-10-08T04:19:20;4.41;;;4.36;;
82922;SDS011;72787;51.272;6.040;2023-10-08T04:21:55;4.92;;;4.85;;
82922;SDS011;72787;51.272;6.040;2023-10-08T04:24:22;4.44;;;4.40;;
82922;SDS011;72787;51.272;6.040;2023-10-08T04:27:00;4.26;;;4.18;;
82922;SDS011;72787;51.272;6.040;2023-10-08T04:29:34;4.49;;;4.39;;
82922;SDS011;72787;51.272;6.040;2023-10-08T04:32:02;4.67;;;4.57;;
82922;SDS011;72787;51.272;6.040;2023-10-08T04:34:33;4.14;;;4.09;;
82922;SDS011;72787;51.272;6.040;2023-10-08T04:37:00;4.64;;;4.59;;
82922;SDS011;72787;51.272;6.040;2023-10-08T04:39:38;4.70;;;4.57;;
82922;SDS011;72787;51.272;6.040;2023-10-08T04:42:06;4.60;;;4.53;;
82922;SDS011;72787;51.272;6.040;2023-10-08T04:44:39;4.35;;;4.32;;
82922;SDS011;72787;51.272;6.040;2023-10-08T04:47:06;4.63;;;4.59;;
82922;SDS011;72787;51.272;6.040;2023-10-08T04:49:52;4.54;;;4.50;;
82922;SDS011;72787;51.272;6.040;2023-10-08T04:52:18;4.56;;;4.51;;
82922;SDS011;72787;51.272;6.040;2023-10-08T04:54:45;4.71;;;4.65;;
82922;SDS011;72787;51.272;6.040;2023-10-08T04:57:18;4.68;;;4.61;;
82922;SDS011;72787;51.272;6.040;2023-10-08T04:59:47;4.28;;;4.20;;
82922;SDS011;72787;51.272;6.040;2023-10-08T05:02:15;4.81;;;4.71;;
82922;SDS011;72787;51.272;6.040;2023-10-08T05:04:47;4.78;;;4.66;;
82922;SDS011;72787;51.272;6.040;2023-10-08T05:07:17;4.51;;;4.43;;
82922;SDS011;72787;51.272;6.040;2023-10-08T05:09:47;4.82;;;4.74;;
82922;SDS011;72787;51.272;6.040;2023-10-08T05:12:29;4.68;;;4.58;;
82922;SDS011;72787;51.272;6.040;2023-10-08T05:14:58;4.45;;;4.36;;
82922;SDS011;72787;51.272;6.040;2023-10-08T05:17:39;4.78;;;4.71;;
82922;SDS011;72787;51.272;6.040;2023-10-08T05:20:18;4.74;;;4.62;;
82922;SDS011;72787;51.272;6.040;2023-10-08T05:22:56;4.95;;;4.82;;
82922;SDS011;72787;51.272;6.040;2023-10-08T05:25:31;4.65;;;4.48;;
82922;SDS011;72787;51.272;6.040;2023-10-08T05:28:05;4.71;;;4.59;;
82922;SDS011;72787;51.272;6.040;2023-10-08T05:30:49;4.42;;;4.35;;
82922;SDS011;72787;51.272;6.040;2023-10-08T05:33:47;4.36;;;4.27;;
82922;SDS011;72787;51.272;6.040;2023-10-08T05:36:31;4.61;;;4.57;;
82922;SDS011;72787;51.272;6.040;2023-10-08T05:39:01;4.93;;;4.80;;
82922;SDS011;72787;51.272;6.040;2023-10-08T05:41:44;4.79;;;4.67;;
82922;SDS011;72787;51.272;6.040;2023-10-08T05:44:29;4.84;;;4.74;;
82922;SDS011;72787;51.272;6.040;2023-10-08T05:47:05;4.63;;;4.48;;
82922;SDS011;72787;51.272;6.040;2023-10-08T05:49:38;4.81;;;4.62;;
82922;SDS011;72787;51.272;6.040;2023-10-08T05:52:07;5.05;;;4.83;;
82922;SDS011;72787;51.272;6.040;2023-10-08T05:54:35;4.88;;;4.72;;
82922;SDS011;72787;51.272;6.040;2023-10-08T05:57:12;5.00;;;4.84;;
82922;SDS011;72787;51.272;6.040;2023-10-08T05:59:39;5.25;;;4.96;;
82922;SDS011;72787;51.272;6.040;2023-10-08T06:05:13;5.43;;;5.05;;
82922;SDS011;72787;51.272;6.040;2023-10-08T06:07:48;5.37;;;5.08;;
82922;SDS011;72787;51.272;6.040;2023-10-08T06:10:23;4.74;;;4.55;;
82922;SDS011;72787;51.272;6.040;2023-10-08T06:13:03;4.81;;;4.64;;
82922;SDS011;72787;51.272;6.040;2023-10-08T06:15:42;4.73;;;4.63;;
82922;SDS011;72787;51.272;6.040;2023-10-08T06:18:25;4.52;;;4.43;;
82922;SDS011;72787;51.272;6.040;2023-10-08T06:20:56;4.56;;;4.46;;
82922;SDS011;72787;51.272;6.040;2023-10-08T06:23:33;4.79;;;4.69;;
82922;SDS011;72787;51.272;6.040;2023-10-08T06:26:03;4.50;;;4.40;;
82922;SDS011;72787;51.272;6.040;2023-10-08T06:28:36;4.58;;;4.50;;
82922;SDS011;72787;51.272;6.040;2023-10-08T06:31:04;4.52;;;4.45;;
82922;SDS011;72787;51.272;6.040;2023-10-08T06:33:37;4.71;;;4.59;;
82922;SDS011;72787;51.272;6.040;2023-10-08T06:36:04;4.47;;;4.30;;
82922;SDS011;72787;51.272;6.040;2023-10-08T06:38:36;4.59;;;4.48;;
82922;SDS011;72787;51.272;6.040;2023-10-08T06:41:07;4.67;;;4.59;;
82922;SDS011;72787;51.272;6.040;2023-10-08T06:43:40;4.41;;;4.33;;
82922;SDS011;72787;51.272;6.040;2023-10-08T06:46:12;4.62;;;4.49;;
82922;SDS011;72787;51.272;6.040;2023-10-08T06:48:39;4.76;;;4.66;;
82922;SDS011;72787;51.272;6.040;2023-10-08T06:51:09;4.58;;;4.51;;
82922;SDS011;72787;51.272;6.040;2023-10-08T06:53:43;4.46;;;4.39;;
82922;SDS011;72787;51.272;6.040;2023-10-08T06:56:16;4.68;;;4.54;;
82922;SDS011;72787;51.272;6.040;2023-10-08T06:58:45;4.54;;;4.44;;
82922;SDS011;72787;51.272;6.040;2023-10-08T07:01:18;4.42;;;4.36;;
82922;SDS011;72787;51.272;6.040;2023-10-08T07:03:47;4.37;;;4.33;;
82922;SDS011;72787;51.272;6.040;2023-10-08T07:06:14;4.54;;;4.46;;
82922;SDS011;72787;51.272;6.040;2023-10-08T07:08:51;4.39;;;4.32;;
82922;SDS011;72787;51.272;6.040;2023-10-08T07:11:21;4.73;;;4.64;;
82922;SDS011;72787;51.272;6.040;2023-10-08T07:13:48;4.45;;;4.36;;
82922;SDS011;72787;51.272;6.040;2023-10-08T07:16:14;4.47;;;4.42;;
82922;SDS011;72787;51.272;6.040;2023-10-08T07:18:43;4.12;;;4.06;;
82922;SDS011;72787;51.272;6.040;2023-10-08T07:21:16;4.57;;;4.44;;
82922;SDS011;72787;51.272;6.040;2023-10-08T07:23:42;4.61;;;4.47;;
82922;SDS011;72787;51.272;6.040;2023-10-08T07:26:28;4.39;;;4.31;;
82922;SDS011;72787;51.272;6.040;2023-10-08T07:29:12;4.35;;;4.27;;
82922;SDS011;72787;51.272;6.040;2023-10-08T07:31:42;4.47;;;4.38;;
82922;SDS011;72787;51.272;6.040;2023-10-08T07:34:17;4.38;;;4.26;;
82922;SDS011;72787;51.272;6.040;2023-10-08T07:36:51;4.56;;;4.44;;
82922;SDS011;72787;51.272;6.040;2023-10-08T07:39:20;4.52;;;4.40;;
82922;SDS011;72787;51.272;6.040;2023-10-08T07:41:56;4.51;;;4.37;;
82922;SDS011;72787;51.272;6.040;2023-10-08T07:44:25;4.41;;;4.30;;
82922;SDS011;72787;51.272;6.040;2023-10-08T07:46:55;4.27;;;4.20;;
82922;SDS011;72787;51.272;6.040;2023-10-08T07:49:22;4.36;;;4.32;;
82922;SDS011;72787;51.272;6.040;2023-10-08T07:51:51;4.27;;;4.24;;
82922;SDS011;72787;51.272;6.040;2023-10-08T07:54:18;4.11;;;4.08;;
82922;SDS011;72787;51.272;6.040;2023-10-08T07:56:47;4.34;;;4.30;;
82922;SDS011;72787;51.272;6.040;2023-10-08T07:59:14;4.59;;;4.52;;
82922;SDS011;72787;51.272;6.040;2023-10-08T08:01:44;5.48;;;5.29;;
82922;SDS011;72787;51.272;6.040;2023-10-08T08:04:10;7.65;;;6.63;;
82922;SDS011;72787;51.272;6.040;2023-10-08T08:06:47;6.72;;;6.03;;
82922;SDS011;72787;51.272;6.040;2023-10-08T08:09:18;6.56;;;5.99;;
82922;SDS011;72787;51.272;6.040;2023-10-08T08:11:47;6.98;;;6.33;;
82922;SDS011;72787;51.272;6.040;2023-10-08T08:14:14;6.76;;;6.21;;
82922;SDS011;72787;51.272;6.040;2023-10-08T08:16:49;6.35;;;5.94;;
82922;SDS011;72787;51.272;6.040;2023-10-08T08:19:15;6.07;;;5.80;;
82922;SDS011;72787;51.272;6.040;2023-10-08T08:21:42;5.55;;;5.30;;
82922;SDS011;72787;51.272;6.040;2023-10-08T08:24:13;5.40;;;5.16;;
82922;SDS011;72787;51.272;6.040;2023-10-08T08:26:50;5.22;;;5.04;;
82922;SDS011;72787;51.272;6.040;2023-10-08T08:29:37;5.27;;;5.03;;
82922;SDS011;72787;51.272;6.040;2023-10-08T08:32:14;4.95;;;4.78;;
82922;SDS011;72787;51.272;6.040;2023-10-08T08:34:47;5.31;;;5.08;;
82922;SDS011;72787;51.272;6.040;2023-10-08T08:37:19;5.47;;;5.20;;
82922;SDS011;72787;51.272;6.040;2023-10-08T08:39:52;5.29;;;5.14;;
82922;SDS011;72787;51.272;6.040;2023-10-08T08:42:19;6.18;;;5.97;;
82922;SDS011;72787;51.272;6.040;2023-10-08T08:44:48;6.00;;;5.85;;
82922;SDS011;72787;51.272;6.040;2023-10-08T08:47:16;6.01;;;5.84;;
82922;SDS011;72787;51.272;6.040;2023-10-08T08:49:44;5.76;;;5.60;;
82922;SDS011;72787;51.272;6.040;2023-10-08T08:52:13;6.04;;;5.86;;
82922;SDS011;72787;51.272;6.040;2023-10-08T08:54:40;5.82;;;5.72;;
82922;SDS011;72787;51.272;6.040;2023-10-08T08:57:07;5.74;;;5.63;;
82922;SDS011;72787;51.272;6.040;2023-10-08T08:59:49;6.16;;;5.96;;
82922;SDS011;72787;51.272;6.040;2023-10-08T09:02:19;6.52;;;6.34;;
82922;SDS011;72787;51.272;6.040;2023-10-08T09:04:45;5.97;;;5.75;;
82922;SDS011;72787;51.272;6.040;2023-10-08T09:07:14;5.92;;;5.70;;
82922;SDS011;72787;51.272;6.040;2023-10-08T09:09:40;5.78;;;5.60;;
82922;SDS011;72787;51.272;6.040;2023-10-08T09:12:07;5.54;;;5.37;;
82922;SDS011;72787;51.272;6.040;2023-10-08T09:14:36;6.27;;;6.13;;
82922;SDS011;72787;51.272;6.040;2023-10-08T09:17:03;6.20;;;6.03;;
82922;SDS011;72787;51.272;6.040;2023-10-08T09:19:35;6.26;;;6.05;;
82922;SDS011;72787;51.272;6.040;2023-10-08T09:22:08;8.53;;;7.98;;
82922;SDS011;72787;51.272;6.040;2023-10-08T09:24:37;9.08;;;8.46;;
82922;SDS011;72787;51.272;6.040;2023-10-08T09:27:05;7.94;;;7.52;;
82922;SDS011;72787;51.272;6.040;2023-10-08T09:29:32;8.77;;;8.24;;
82922;SDS011;72787;51.272;6.040;2023-10-08T09:32:05;8.87;;;8.33;;
82922;SDS011;72787;51.272;6.040;2023-10-08T09:34:34;9.56;;;8.94;;
82922;SDS011;72787;51.272;6.040;2023-10-08T09:37:02;9.54;;;8.88;;
82922;SDS011;72787;51.272;6.040;2023-10-08T09:39:29;9.10;;;8.54;;
82922;SDS011;72787;51.272;6.040;2023-10-08T09:42:02;9.39;;;8.88;;
82922;SDS011;72787;51.272;6.040;2023-10-08T09:44:29;9.07;;;8.59;;
82922;SDS011;72787;51.272;6.040;2023-10-08T09:49:30;9.02;;;8.75;;
82922;SDS011;72787;51.272;6.040;2023-10-08T09:52:01;9.18;;;8.81;;
82922;SDS011;72787;51.272;6.040;2023-10-08T09:54:33;9.41;;;9.10;;
82922;SDS011;72787;51.272;6.040;2023-10-08T09:57:08;10.08;;;9.81;;
82922;SDS011;72787;51.272;6.040;2023-10-08T09:59:35;10.40;;;10.25;;
82922;SDS011;72787;51.272;6.040;2023-10-08T10:02:03;10.23;;;10.05;;
82922;SDS011;72787;51.272;6.040;2023-10-08T10:04:31;10.02;;;9.74;;
82922;SDS011;72787;51.272;6.040;2023-10-08T10:06:57;10.08;;;9.75;;
82922;SDS011;72787;51.272;6.040;2023-10-08T10:09:24;9.55;;;9.36;;
82922;SDS011;72787;51.272;6.040;2023-10-08T10:11:51;10.19;;;9.97;;
82922;SDS011;72787;51.272;6.040;2023-10-08T10:14:22;9.79;;;9.70;;
82922;SDS011;72787;51.272;6.040;2023-10-08T10:17:35;10.18;;;10.09;;
82922;SDS011;72787;51.272;6.040;2023-10-08T10:19:41;10.17;;;10.04;;
82922;SDS011;72787;51.272;6.040;2023-10-08T10:22:12;10.62;;;10.40;;
82922;SDS011;72787;51.272;6.040;2023-10-08T10:24:42;10.50;;;10.37;;
82922;SDS011;72787;51.272;6.040;2023-10-08T10:27:15;10.18;;;10.01;;
82922;SDS011;72787;51.272;6.040;2023-10-08T10:29:42;10.55;;;10.37;;
82922;SDS011;72787;51.272;6.040;2023-10-08T10:32:12;10.38;;;10.23;;
82922;SDS011;72787;51.272;6.040;2023-10-08T10:34:40;10.45;;;10.31;;
82922;SDS011;72787;51.272;6.040;2023-10-08T10:37:08;10.93;;;10.67;;
82922;SDS011;72787;51.272;6.040;2023-10-08T10:39:50;10.93;;;10.70;;
82922;SDS011;72787;51.272;6.040;2023-10-08T10:42:18;11.02;;;10.82;;
82922;SDS011;72787;51.272;6.040;2023-10-08T10:44:47;10.98;;;10.82;;
82922;SDS011;72787;51.272;6.040;2023-10-08T10:47:17;10.97;;;10.82;;
82922;SDS011;72787;51.272;6.040;2023-10-08T10:49:46;10.83;;;10.69;;
82922;SDS011;72787;51.272;6.040;2023-10-08T10:52:36;11.11;;;10.98;;
82922;SDS011;72787;51.272;6.040;2023-10-08T10:55:17;10.99;;;10.90;;
82922;SDS011;72787;51.272;6.040;2023-10-08T10:57:48;11.34;;;11.25;;
82922;SDS011;72787;51.272;6.040;2023-10-08T11:00:36;11.21;;;11.09;;
82922;SDS011;72787;51.272;6.040;2023-10-08T11:03:07;11.49;;;11.35;;
82922;SDS011;72787;51.272;6.040;2023-10-08T11:05:49;12.06;;;11.93;;
82922;SDS011;72787;51.272;6.040;2023-10-08T11:08:20;12.54;;;12.45;;
82922;SDS011;72787;51.272;6.040;2023-10-08T11:10:48;13.21;;;13.04;;
82922;SDS011;72787;51.272;6.040;2023-10-08T11:13:19;12.53;;;12.41;;
82922;SDS011;72787;51.272;6.040;2023-10-08T11:15:47;12.86;;;12.77;;
82922;SDS011;72787;51.272;6.040;2023-10-08T11:18:20;12.72;;;12.68;;
82922;SDS011;72787;51.272;6.040;2023-10-08T11:20:48;12.45;;;12.41;;
82922;SDS011;72787;51.272;6.040;2023-10-08T11:23:37;12.62;;;12.57;;
82922;SDS011;72787;51.272;6.040;2023-10-08T11:26:07;12.50;;;12.43;;
82922;SDS011;72787;51.272;6.040;2023-10-08T11:28:34;13.27;;;13.24;;
82922;SDS011;72787;51.272;6.040;2023-10-08T11:31:07;13.29;;;13.26;;
82922;SDS011;72787;51.272;6.040;2023-10-08T11:33:36;13.39;;;13.33;;
82922;SDS011;72787;51.272;6.040;2023-10-08T11:36:04;13.62;;;13.55;;
82922;SDS011;72787;51.272;6.040;2023-10-08T11:38:39;13.23;;;13.18;;
82922;SDS011;72787;51.272;6.040;2023-10-08T11:41:12;13.16;;;13.16;;
82922;SDS011;72787;51.272;6.040;2023-10-08T11:43:49;13.67;;;13.65;;
82922;SDS011;72787;51.272;6.040;2023-10-08T11:46:20;13.69;;;13.65;;
82922;SDS011;72787;51.272;6.040;2023-10-08T11:48:47;13.93;;;13.87;;
82922;SDS011;72787;51.272;6.040;2023-10-08T11:51:13;13.95;;;13.90;;
82922;SDS011;72787;51.272;6.040;2023-10-08T11:53:42;13.53;;;13.49;;
82922;SDS011;72787;51.272;6.040;2023-10-08T11:56:11;14.19;;;14.18;;
82922;SDS011;72787;51.272;6.040;2023-10-08T11:58:41;14.86;;;14.82;;
82922;SDS011;72787;51.272;6.040;2023-10-08T12:01:11;13.89;;;13.86;;
82922;SDS011;72787;51.272;6.040;2023-10-08T12:03:50;14.14;;;14.07;;
82922;SDS011;72787;51.272;6.040;2023-10-08T12:06:16;13.60;;;13.56;;
82922;SDS011;72787;51.272;6.040;2023-10-08T12:08:47;13.66;;;13.59;;
82922;SDS011;72787;51.272;6.040;2023-10-08T12:11:19;14.23;;;14.12;;
82922;SDS011;72787;51.272;6.040;2023-10-08T12:13:48;13.84;;;13.82;;
82922;SDS011;72787;51.272;6.040;2023-10-08T12:16:15;13.99;;;13.94;;
82922;SDS011;72787;51.272;6.040;2023-10-08T12:18:47;13.68;;;13.65;;
82922;SDS011;72787;51.272;6.040;2023-10-08T12:21:16;14.03;;;13.97;;
82922;SDS011;72787;51.272;6.040;2023-10-08T12:23:43;14.49;;;14.41;;
82922;SDS011;72787;51.272;6.040;2023-10-08T12:26:10;14.78;;;14.71;;
82922;SDS011;72787;51.272;6.040;2023-10-08T12:28:41;14.49;;;14.43;;
82922;SDS011;72787;51.272;6.040;2023-10-08T12:31:11;14.48;;;14.40;;
82922;SDS011;72787;51.272;6.040;2023-10-08T12:33:37;14.17;;;14.12;;
82922;SDS011;72787;51.272;6.040;2023-10-08T12:36:03;14.30;;;14.27;;
82922;SDS011;72787;51.272;6.040;2023-10-08T12:38:38;14.38;;;14.26;;
82922;SDS011;72787;51.272;6.040;2023-10-08T12:41:06;13.95;;;13.89;;
82922;SDS011;72787;51.272;6.040;2023-10-08T12:43:37;13.94;;;13.89;;
82922;SDS011;72787;51.272;6.040;2023-10-08T12:46:08;14.28;;;14.22;;
82922;SDS011;72787;51.272;6.040;2023-10-08T12:48:43;14.03;;;13.99;;
82922;SDS011;72787;51.272;6.040;2023-10-08T12:51:13;14.48;;;14.45;;
82922;SDS011;72787;51.272;6.040;2023-10-08T12:53:39;14.51;;;14.44;;
82922;SDS011;72787;51.272;6.040;2023-10-08T12:56:07;14.35;;;14.30;;
82922;SDS011;72787;51.272;6.040;2023-10-08T12:58:40;13.97;;;13.90;;
82922;SDS011;72787;51.272;6.040;2023-10-08T13:01:12;14.93;;;14.82;;
82922;SDS011;72787;51.272;6.040;2023-10-08T13:03:39;14.89;;;14.81;;
82922;SDS011;72787;51.272;6.040;2023-10-08T13:06:13;14.72;;;14.64;;
82922;SDS011;72787;51.272;6.040;2023-10-08T13:08:50;14.90;;;14.85;;
82922;SDS011;72787;51.272;6.040;2023-10-08T13:11:21;14.19;;;14.16;;
82922;SDS011;72787;51.272;6.040;2023-10-08T13:13:52;14.81;;;14.73;;
82922;SDS011;72787;51.272;6.040;2023-10-08T13:16:23;14.22;;;14.17;;
82922;SDS011;72787;51.272;6.040;2023-10-08T13:18:50;14.15;;;14.11;;
82922;SDS011;72787;51.272;6.040;2023-10-08T13:21:17;14.10;;;14.07;;
82922;SDS011;72787;51.272;6.040;2023-10-08T13:23:53;14.67;;;14.64;;
82922;SDS011;72787;51.272;6.040;2023-10-08T13:26:22;15.84;;;15.70;;
82922;SDS011;72787;51.272;6.040;2023-10-08T13:28:50;17.55;;;17.47;;
82922;SDS011;72787;51.272;6.040;2023-10-08T13:31:16;17.85;;;17.72;;
82922;SDS011;72787;51.272;6.040;2023-10-08T13:33:44;16.83;;;16.79;;
82922;SDS011;72787;51.272;6.040;2023-10-08T13:36:14;16.15;;;16.05;;
82922;SDS011;72787;51.272;6.040;2023-10-08T13:38:42;15.98;;;15.89;;
82922;SDS011;72787;51.272;6.040;2023-10-08T13:41:08;15.14;;;15.09;;
82922;SDS011;72787;51.272;6.040;2023-10-08T13:43:41;15.45;;;15.41;;
82922;SDS011;72787;51.272;6.040;2023-10-08T13:46:11;15.08;;;15.05;;
82922;SDS011;72787;51.272;6.040;2023-10-08T13:48:39;15.62;;;15.54;;
82922;SDS011;72787;51.272;6.040;2023-10-08T13:51:06;15.69;;;15.67;;
82922;SDS011;72787;51.272;6.040;2023-10-08T13:53:39;15.72;;;15.70;;
82922;SDS011;72787;51.272;6.040;2023-10-08T13:56:18;15.83;;;15.72;;
82922;SDS011;72787;51.272;6.040;2023-10-08T13:58:49;15.60;;;15.59;;
82922;SDS011;72787;51.272;6.040;2023-10-08T14:01:17;15.58;;;15.53;;
82922;SDS011;72787;51.272;6.040;2023-10-08T14:03:49;15.56;;;15.52;;
82922;SDS011;72787;51.272;6.040;2023-10-08T14:06:19;15.41;;;15.41;;
82922;SDS011;72787;51.272;6.040;2023-10-08T14:08:46;15.39;;;15.37;;
82922;SDS011;72787;51.272;6.040;2023-10-08T14:11:20;15.71;;;15.58;;
82922;SDS011;72787;51.272;6.040;2023-10-08T14:13:52;15.07;;;15.01;;
82922;SDS011;72787;51.272;6.040;2023-10-08T14:16:21;15.06;;;14.99;;
82922;SDS011;72787;51.272;6.040;2023-10-08T14:18:54;15.40;;;15.39;;
82922;SDS011;72787;51.272;6.040;2023-10-08T14:21:25;15.46;;;15.44;;
82922;SDS011;72787;51.272;6.040;2023-10-08T14:23:56;15.23;;;15.19;;
82922;SDS011;72787;51.272;6.040;2023-10-08T14:26:28;15.47;;;15.44;;
82922;SDS011;72787;51.272;6.040;2023-10-08T14:29:01;15.27;;;15.23;;
82922;SDS011;72787;51.272;6.040;2023-10-08T14:31:39;15.57;;;15.52;;
82922;SDS011;72787;51.272;6.040;2023-10-08T14:34:05;15.34;;;15.28;;
82922;SDS011;72787;51.272;6.040;2023-10-08T14:36:34;15.22;;;15.15;;
82922;SDS011;72787;51.272;6.040;2023-10-08T14:39:18;15.27;;;15.23;;
82922;SDS011;72787;51.272;6.040;2023-10-08T14:42:03;15.14;;;15.05;;
82922;SDS011;72787;51.272;6.040;2023-10-08T14:44:48;14.77;;;14.76;;
82922;SDS011;72787;51.272;6.040;2023-10-08T14:47:16;15.71;;;15.67;;
82922;SDS011;72787;51.272;6.040;2023-10-08T14:49:42;16.14;;;16.03;;
82922;SDS011;72787;51.272;6.040;2023-10-08T14:52:11;16.80;;;16.78;;
82922;SDS011;72787;51.272;6.040;2023-10-08T14:54:37;16.02;;;16.01;;
82922;SDS011;72787;51.272;6.040;2023-10-08T14:57:03;15.33;;;15.22;;
82922;SDS011;72787;51.272;6.040;2023-10-08T14:59:31;15.45;;;15.35;;
82922;SDS011;72787;51.272;6.040;2023-10-08T15:06:10;14.88;;;14.84;;
82922;SDS011;72787;51.272;6.040;2023-10-08T15:08:36;14.85;;;14.78;;
82922;SDS011;72787;51.272;6.040;2023-10-08T15:11:02;14.83;;;14.76;;